METAR Data
IDs: Format: Raw Decoded Include TAF

Data at: 0301 UTC 25 Jan 2020

PACV 250253Z 06010G18KT 10SM BKN085 M03/M12 A2923 RMK AO2 SLP899 T10331117 51010
PACV 250153Z 06010KT 10SM BKN085 M03/M14 A2922 RMK AO2 SLP896 T10331144
PACV 250053Z 13007KT 10SM OVC055 M03/M12 A2922 RMK AO2 SLP896 T10281117
PACV 242353Z 09004KT 10SM OVC060 M01/M13 A2920 RMK AO2 SLP889 4/007 T10111133 11011 21044 53005
PACV 242253Z 07008KT 10SM SCT055 OVC070 M02/M14 A2919 RMK AO2 SLP883 T10221139
PACV 242153Z 05008KT 10SM OVC095 M02/M13 A2919 RMK AO2 SLP884 T10221133
PACV 242053Z 34007KT 10SM FEW070 OVC090 M04/M09 A2919 RMK AO2 SLP884 T10441094 58010
PACV 241953Z 34004KT 10SM FEW060 OVC095 M04/M09 A2920 RMK AO2 SLP888 T10391094
PACV 241853Z 05007KT 10SM FEW014 BKN055 OVC070 M03/M11 A2921 RMK AO2 SLP892 T10281111
PACV 241753Z 05009G16KT 10SM SCT055 OVC075 M03/M10 A2922 RMK AO2 SLP894 4/007 T10331100 11033 21044 58012
PACV 241653Z 05009KT 10SM SCT045 BKN055 BKN070 M03/M11 A2923 RMK AO2 SLP898 T10331106
PACV 241553Z 05006KT 10SM SCT055 SCT070 BKN085 M04/M09 A2925 RMK AO2 SLP904 T10441094
PACV 241453Z 07009KT 10SM CLR M04/M11 A2925 RMK AO2 SLP906 T10391106 56007
PACV 241353Z 07006KT 10SM FEW037 BKN044 BKN080 M04/M09 A2926 RMK AO2 SLP907 T10391094
PACV 241253Z 05008G15KT 10SM FEW070 SCT095 M04/M09 A2926 RMK AO2 SLP908 T10391094
PACV 241153Z 07007KT 10SM BKN047 BKN055 M03/M09 A2927 RMK AO2 SLP912 4/007 60000 T10331094 11033 21056 58005
PACV 241053Z 06009G16KT 020V100 10SM BKN042 BKN055 M03/M08 A2928 RMK AO2 SNB21E30 SLP915 P0000 T10331083
PACV 240953Z 05007G17KT 10SM OVC075 M04/M08 A2928 RMK AO2 SLP916 T10391078
PACV 240853Z 07007KT 8SM OVC049 M04/M07 A2929 RMK AO2 SNE51 SLP917 P0000 60000 T10391072 410331128 53007
PACV 240839Z 06007KT 3SM -SN OVC032 M04/M07 A2928 RMK AO2 P0000 T10441072
PACV 240818Z 00000KT 1SM R27/P6000FT -SN BR VV020 M06/M07 A2928 RMK AO2 P0000 T10561072
PACV 240753Z 06003KT 2SM -SN BR BKN026 OVC032 M04/M07 A2927 RMK AO2 SLP913 P0000 T10441067
PACV 240734Z 03004KT 1 3/4SM -SN OVC022 M04/M07 A2927 RMK AO2 P0000 T10391072
PACV 240722Z 00000KT 5SM -SN OVC026 M04/M07 A2927 RMK AO2 P0000 T10391072
PACV 240653Z 00000KT 5SM -SN OVC036 M04/M08 A2926 RMK AO2 SNB43 SLP910 P0000 T10441078
PACV 240553Z VRB03KT 10SM BKN042 OVC055 M04/M08 A2927 RMK AO2 SLP911 4/007 60000 T10391078 11033 21072 50001
PACV 240453Z 06007G14KT 10SM OVC065 M04/M08 A2927 RMK AO2 SLP911 T10391078
PACV 240353Z 00000KT 10SM OVC047 M06/M08 A2928 RMK AO2 SNE36 SLP914 P0000 T10561078
PACV 240253Z 00000KT 7SM -SN OVC037 M06/M08 A2926 RMK AO2 SNB43 SLP910 P0000 60000 T10611083 50000
PACV 240153Z 30005KT 10SM BKN050 OVC060 M07/M09 A2927 RMK AO2 SLP914 T10721089
PACV 240053Z 00000KT 10SM BKN065 M07/M08 A2926 RMK AO2 SLP910 T10671083
PACV 232353Z 00000KT 10SM FEW060 BKN150 BKN200 M06/M08 A2926 RMK AO2 SLP910 I1000 I6000 T10611078 11061 21111 56005
PACV 232253Z 00000KT 10SM FEW060 BKN150 M07/M09 A2927 RMK AO2 SLP912 I1000 T10721089
PACV 232153Z 00000KT 10SM FEW060 BKN150 M08/M10 A2927 RMK AO2 SLP912 T10781100
PACV 232053Z 00000KT 10SM FEW060 BKN150 M09/M11 A2928 RMK AO2 SLP915 I1000 I3000 T10941111 58003
PACV 231953Z 00000KT 10SM FEW060 BKN150 M11/M12 A2929 RMK AO2 SLP919 T11061122
PACV 231853Z 00000KT 10SM FEW060 BKN150 M11/M13 A2928 RMK AO2 SLP917 T11061128
PACV 231753Z 00000KT 10SM FEW028 OVC150 M11/M13 A2929 RMK AO2 SLP918 4/007 I6000 T11111133 11111 21128 56009
PACV 231653Z 00000KT 10SM CLR M11/M13 A2929 RMK AO2 SLP921 T11111133
PACV 231553Z 00000KT 10SM CLR M11/M13 A2930 RMK AO2 SLP923 T11111133